Time;durP1;ratioP1;P1;durP2;ratioP2;P2;SDS_P1;SDS_P2;PMS_P1;PMS_P2;Temp;Humidity;BMP_temperature;BMP_pressure;BME280_temperature;BME280_humidity;BME280_pressure;Samples;Min_cycle;Max_cycle;Signal;HPM_P1;HPM_P2
2022/12/05 00:01:23;;;;;;;25.00;17.10;;;4.00;99.90;;;;;;5086462;28;20519;-30
2022/12/05 00:03:51;;;;;;;28.00;19.23;;;4.20;99.90;;;;;;5080880;28;20454;-30
2022/12/05 00:06:17;;;;;;;25.47;19.27;;;4.20;99.90;;;;;;5091639;28;20422;-30
2022/12/05 00:08:44;;;;;;;24.47;17.90;;;4.10;99.90;;;;;;5090951;28;20434;-30
2022/12/05 00:11:12;;;;;;;25.93;18.40;;;4.20;99.90;;;;;;5090182;28;20446;-30
2022/12/05 00:13:39;;;;;;;24.87;17.93;;;4.10;99.90;;;;;;5073975;28;20417;-30
2022/12/05 00:16:10;;;;;;;24.00;17.20;;;4.20;99.90;;;;;;5083829;28;20460;-30
2022/12/05 00:18:37;;;;;;;27.10;17.57;;;4.20;99.90;;;;;;5090429;28;20466;-30
2022/12/05 00:21:03;;;;;;;26.30;18.00;;;4.10;99.90;;;;;;5089617;28;20426;-30
2022/12/05 00:23:29;;;;;;;26.50;18.70;;;4.10;99.90;;;;;;5090492;28;20423;-30
2022/12/05 00:25:55;;;;;;;24.83;18.50;;;4.10;99.90;;;;;;5084812;28;20461;-30
2022/12/05 00:28:20;;;;;;;24.70;18.13;;;4.20;99.90;;;;;;5090965;28;20686;-30
2022/12/05 00:30:46;;;;;;;24.93;19.40;;;4.00;99.90;;;;;;5090155;28;20299;-30
2022/12/05 00:33:12;;;;;;;25.90;18.80;;;4.10;99.90;;;;;;5090518;28;20188;-30
2022/12/05 00:35:37;;;;;;;26.20;18.10;;;4.30;99.90;;;;;;5088924;28;20200;-30
2022/12/05 00:38:03;;;;;;;23.27;17.30;;;4.10;99.90;;;;;;5090533;28;20196;-30
2022/12/05 00:40:28;;;;;;;23.60;18.00;;;4.00;99.90;;;;;;5090382;28;20458;-30
2022/12/05 00:42:54;;;;;;;28.80;20.30;;;4.20;99.90;;;;;;5090162;28;20192;-30
2022/12/05 00:45:20;;;;;;;24.07;17.80;;;4.20;99.90;;;;;;5090404;28;20245;-30
2022/12/05 00:47:46;;;;;;;25.90;18.43;;;4.10;99.90;;;;;;5090126;28;20219;-30
2022/12/05 00:50:11;;;;;;;31.60;17.50;;;4.10;99.90;;;;;;5089933;28;20193;-30
2022/12/05 00:52:37;;;;;;;26.23;17.60;;;4.20;99.90;;;;;;5088977;28;20200;-30
2022/12/05 00:55:03;;;;;;;23.70;18.13;;;4.20;99.90;;;;;;5089958;28;20291;-30
2022/12/05 00:57:28;;;;;;;27.80;18.07;;;4.30;99.90;;;;;;5090122;28;20275;-30
2022/12/05 00:59:54;;;;;;;25.73;17.63;;;4.10;99.90;;;;;;5089867;28;20223;-30
2022/12/05 01:02:19;;;;;;;27.87;18.60;;;4.10;99.90;;;;;;5088616;28;20410;-30
2022/12/05 01:04:45;;;;;;;24.53;18.47;;;4.10;99.90;;;;;;5082699;28;20199;-30
2022/12/05 01:07:11;;;;;;;25.57;16.70;;;4.30;99.90;;;;;;5089831;28;20188;-30
2022/12/05 01:09:36;;;;;;;25.63;16.77;;;4.10;99.90;;;;;;5089177;28;20195;-30
2022/12/05 01:12:02;;;;;;;27.40;18.10;;;4.20;99.90;;;;;;5090133;28;20717;-30
2022/12/05 01:14:28;;;;;;;24.00;17.70;;;4.20;99.90;;;;;;5089511;28;20235;-30
2022/12/05 01:16:55;;;;;;;26.77;18.40;;;4.20;99.90;;;;;;5089881;28;20256;-30
2022/12/05 01:19:24;;;;;;;25.73;17.83;;;4.20;99.90;;;;;;5089323;28;20728;-30
2022/12/05 01:21:50;;;;;;;24.40;17.50;;;4.20;99.90;;;;;;5076592;28;20419;-30
2022/12/05 01:24:17;;;;;;;23.77;17.70;;;4.30;99.90;;;;;;5087544;28;20424;-30
2022/12/05 01:26:43;;;;;;;26.73;19.00;;;4.10;99.90;;;;;;5089439;28;20418;-30
2022/12/05 01:29:11;;;;;;;22.70;17.40;;;4.20;99.90;;;;;;5089339;28;20422;-30
2022/12/05 01:31:36;;;;;;;23.90;17.20;;;4.20;99.90;;;;;;5089463;28;20485;-30
2022/12/05 01:34:05;;;;;;;22.47;17.27;;;4.10;99.90;;;;;;5088054;28;20422;-30
2022/12/05 01:36:31;;;;;;;23.70;18.43;;;4.20;99.90;;;;;;5088698;28;20253;-30
2022/12/05 01:38:57;;;;;;;23.87;16.93;;;4.00;99.90;;;;;;5075359;28;20463;-30
2022/12/05 01:41:27;;;;;;;22.93;18.00;;;4.20;99.90;;;;;;5069193;28;20173;-30
2022/12/05 01:44:26;;;;;;;34.43;18.33;;;4.10;99.90;;;;;;5068815;28;20418;-30
2022/12/05 01:46:53;;;;;;;25.03;18.27;;;4.20;99.90;;;;;;5068915;28;20408;-30
2022/12/05 01:49:31;;;;;;;24.77;17.80;;;4.10;99.90;;;;;;5068622;28;20431;-30
2022/12/05 01:52:08;;;;;;;23.47;17.00;;;4.00;99.90;;;;;;5068918;28;20419;-30
2022/12/05 01:54:36;;;;;;;25.83;17.07;;;4.20;99.90;;;;;;5068785;28;20476;-30
2022/12/05 01:57:06;;;;;;;28.20;17.80;;;4.20;99.90;;;;;;5069069;28;20792;-30
2022/12/05 01:59:37;;;;;;;22.07;17.03;;;4.20;99.90;;;;;;5083527;28;20447;-30
2022/12/05 02:02:04;;;;;;;27.13;17.40;;;4.10;99.90;;;;;;5068618;28;20407;-30
2022/12/05 02:04:30;;;;;;;27.03;16.97;;;4.10;99.90;;;;;;5068341;28;20427;-30
2022/12/05 02:06:56;;;;;;;22.63;16.20;;;4.10;99.90;;;;;;5068618;28;20538;-30
2022/12/05 02:09:22;;;;;;;24.93;17.47;;;4.10;99.90;;;;;;5068285;28;20844;-30
2022/12/05 02:11:55;;;;;;;27.50;17.60;;;4.00;99.90;;;;;;5083731;28;20193;-30
2022/12/05 02:14:35;;;;;;;24.43;17.50;;;4.10;99.90;;;;;;5083786;28;20419;-30
2022/12/05 02:17:22;;;;;;;25.70;17.50;;;4.20;99.90;;;;;;5068268;28;20996;-30
2022/12/05 02:20:08;;;;;;;24.33;16.97;;;4.10;99.90;;;;;;5076322;28;20478;-30
2022/12/05 02:23:01;;;;;;;24.40;18.10;;;4.20;99.90;;;;;;5068088;28;20426;-30
2022/12/05 02:25:59;;;;;;;24.40;17.10;;;4.00;99.90;;;;;;5068520;28;20411;-30
2022/12/05 02:28:28;;;;;;;27.13;18.70;;;4.30;99.90;;;;;;5066404;28;20777;-30
2022/12/05 02:31:01;;;;;;;27.60;17.00;;;4.20;99.90;;;;;;5078648;28;20422;-30
2022/12/05 02:33:31;;;;;;;24.67;18.03;;;4.30;99.90;;;;;;5078992;28;20797;-30
2022/12/05 02:36:04;;;;;;;26.30;17.90;;;4.30;99.90;;;;;;5088424;28;20785;-30
2022/12/05 02:38:34;;;;;;;23.97;17.37;;;4.20;99.90;;;;;;5084393;28;20462;-30
2022/12/05 02:41:15;;;;;;;22.83;17.10;;;4.10;99.90;;;;;;5067912;28;20464;-30
2022/12/05 02:43:53;;;;;;;22.17;17.17;;;4.00;99.90;;;;;;5067490;28;20494;-30
2022/12/05 02:46:26;;;;;;;23.87;16.73;;;4.00;99.90;;;;;;5068180;28;20515;-30
2022/12/05 02:48:56;;;;;;;24.83;17.10;;;4.20;99.90;;;;;;5067416;28;20510;-30
2022/12/05 02:51:26;;;;;;;26.33;17.73;;;4.30;99.90;;;;;;5068034;28;20418;-30
2022/12/05 02:53:55;;;;;;;25.53;17.37;;;4.10;99.90;;;;;;5067398;28;20420;-30
2022/12/05 02:56:22;;;;;;;26.47;18.77;;;4.30;99.90;;;;;;5068124;28;20789;-30
2022/12/05 02:58:52;;;;;;;24.10;16.90;;;4.00;99.90;;;;;;5081214;28;20849;-30
2022/12/05 03:01:22;;;;;;;24.63;16.57;;;4.00;99.90;;;;;;5085305;28;20917;-30
2022/12/05 03:03:48;;;;;;;23.90;17.43;;;4.10;99.90;;;;;;5087631;28;20421;-30
2022/12/05 03:06:25;;;;;;;25.97;18.57;;;4.20;99.90;;;;;;5087790;28;20411;-30
2022/12/05 03:09:05;;;;;;;24.53;16.20;;;4.20;99.90;;;;;;5087569;28;20192;-30
2022/12/05 03:11:46;;;;;;;26.30;18.03;;;4.30;99.90;;;;;;5086265;28;20441;-30
2022/12/05 03:14:20;;;;;;;24.77;16.77;;;4.30;99.90;;;;;;5067363;28;20760;-30
2022/12/05 03:16:56;;;;;;;24.13;17.63;;;4.20;99.90;;;;;;5067078;28;20533;-30
2022/12/05 03:19:33;;;;;;;25.53;16.90;;;4.00;99.90;;;;;;5067588;28;20834;-30
2022/12/05 03:22:09;;;;;;;23.40;16.53;;;4.20;99.90;;;;;;5067347;28;20471;-30
2022/12/05 03:24:38;;;;;;;27.80;17.70;;;4.10;99.90;;;;;;5067244;28;20492;-30
2022/12/05 03:27:09;;;;;;;25.00;16.13;;;4.20;99.90;;;;;;5066971;28;20407;-30
2022/12/05 03:29:41;;;;;;;24.37;16.43;;;4.10;99.90;;;;;;5067079;28;20417;-30
2022/12/05 03:32:19;;;;;;;24.80;16.63;;;4.10;99.90;;;;;;5067362;28;20423;-29
2022/12/05 03:35:05;;;;;;;25.87;17.00;;;4.30;99.90;;;;;;5066456;28;20720;-30
2022/12/05 03:37:56;;;;;;;25.13;17.50;;;4.30;99.90;;;;;;5066962;28;20480;-30
2022/12/05 03:40:44;;;;;;;26.70;18.70;;;4.20;99.90;;;;;;5081502;28;20478;-30
2022/12/05 03:43:22;;;;;;;23.40;16.50;;;4.20;99.90;;;;;;5087070;28;20429;-30
2022/12/05 03:45:53;;;;;;;24.80;17.13;;;4.20;99.90;;;;;;5075398;28;20427;-30
2022/12/05 03:48:53;;;;;;;24.43;16.10;;;4.20;99.90;;;;;;5084585;28;20438;-30
2022/12/05 03:51:24;;;;;;;22.93;16.07;;;4.10;99.90;;;;;;5087616;28;20454;-30
2022/12/05 03:54:02;;;;;;;22.20;16.57;;;4.10;99.90;;;;;;5086947;28;20456;-30
2022/12/05 03:56:36;;;;;;;24.53;17.03;;;4.20;99.90;;;;;;5087210;28;20418;-30
2022/12/05 03:59:22;;;;;;;22.07;16.50;;;4.00;99.90;;;;;;5086900;28;20453;-30
2022/12/05 04:01:50;;;;;;;26.20;17.63;;;4.20;99.90;;;;;;5087304;28;20494;-30
2022/12/05 04:04:26;;;;;;;23.70;17.53;;;4.10;99.90;;;;;;5086928;28;20415;-30
2022/12/05 04:06:56;;;;;;;23.13;16.07;;;4.00;99.90;;;;;;5087512;28;20417;-30
2022/12/05 04:09:27;;;;;;;27.10;18.27;;;4.30;99.90;;;;;;5086727;28;20932;-30
2022/12/05 04:11:58;;;;;;;24.07;17.70;;;4.20;99.90;;;;;;5082634;28;20563;-30
2022/12/05 04:14:33;;;;;;;27.33;17.40;;;4.20;99.90;;;;;;5066646;28;20419;-30
2022/12/05 04:17:33;;;;;;;25.80;18.70;;;4.10;99.90;;;;;;5066501;28;20865;-30
2022/12/05 04:22:48;;;;;;;20.87;16.23;;;4.10;99.90;;;;;;5080208;28;20537;-30
2022/12/05 04:25:34;;;;;;;25.50;17.07;;;4.20;99.90;;;;;;5083484;28;20465;-30
2022/12/05 04:28:28;;;;;;;21.63;16.20;;;4.40;99.90;;;;;;5090438;28;20426;-30
2022/12/05 04:30:56;;;;;;;27.80;16.50;;;4.30;99.90;;;;;;5084481;28;20819;-30
2022/12/05 04:33:43;;;;;;;25.30;16.20;;;4.30;99.90;;;;;;5089715;28;20410;-30
2022/12/05 04:36:14;;;;;;;20.93;16.57;;;4.20;99.90;;;;;;5090707;28;20413;-30
2022/12/05 04:39:08;;;;;;;21.60;16.60;;;4.20;99.90;;;;;;5089495;28;20581;-30
2022/12/05 04:41:46;;;;;;;25.13;16.03;;;4.20;99.90;;;;;;5087252;28;20434;-30
2022/12/05 04:44:16;;;;;;;22.90;17.43;;;4.30;99.90;;;;;;5081820;28;20418;-30
2022/12/05 04:46:43;;;;;;;23.43;16.70;;;4.20;99.90;;;;;;5090414;28;20406;-30
2022/12/05 04:49:12;;;;;;;23.57;15.67;;;4.20;99.90;;;;;;5090392;28;20422;-30
2022/12/05 04:51:40;;;;;;;25.80;18.20;;;4.10;99.90;;;;;;5090430;28;20423;-30
2022/12/05 04:54:26;;;;;;;25.87;16.27;;;4.10;99.90;;;;;;5090292;28;20564;-29
2022/12/05 04:56:59;;;;;;;24.87;16.73;;;4.10;99.90;;;;;;5090409;28;20922;-30
2022/12/05 04:59:25;;;;;;;24.90;17.80;;;4.20;99.90;;;;;;5089788;28;20469;-30
2022/12/05 05:01:55;;;;;;;25.97;17.53;;;4.10;99.90;;;;;;5089949;28;20426;-30
2022/12/05 05:04:30;;;;;;;22.50;17.17;;;4.00;99.90;;;;;;5090120;28;20181;-30
2022/12/05 05:06:55;;;;;;;21.30;15.27;;;4.20;99.90;;;;;;5089834;28;20527;-30
2022/12/05 05:09:21;;;;;;;25.13;16.70;;;4.30;99.90;;;;;;5090236;28;20472;-30
2022/12/05 05:11:47;;;;;;;24.13;17.90;;;4.20;99.90;;;;;;5084608;28;20656;-30
2022/12/05 05:14:13;;;;;;;24.23;17.10;;;4.30;99.90;;;;;;5068370;28;20178;-30
2022/12/05 05:16:40;;;;;;;23.37;16.17;;;4.10;99.90;;;;;;5069906;28;20994;-31
2022/12/05 05:19:07;;;;;;;21.40;15.20;;;4.20;99.90;;;;;;5069229;28;20262;-30
2022/12/05 05:21:38;;;;;;;23.60;17.13;;;4.00;99.90;;;;;;5072792;28;20517;-30
2022/12/05 05:24:06;;;;;;;24.60;16.43;;;4.10;99.90;;;;;;5080668;28;20423;-29
2022/12/05 05:26:34;;;;;;;25.83;16.47;;;4.00;99.90;;;;;;5090022;28;20472;-30
2022/12/05 05:29:00;;;;;;;20.70;15.40;;;4.10;99.90;;;;;;5088956;28;20913;-30
2022/12/05 05:31:26;;;;;;;22.20;16.37;;;4.10;99.90;;;;;;5089867;28;20433;-30
2022/12/05 05:33:54;;;;;;;20.67;15.50;;;4.10;99.90;;;;;;5103941;28;20495;-30
2022/12/05 05:36:22;;;;;;;21.47;16.53;;;4.10;99.90;;;;;;5088845;28;20470;-30
2022/12/05 05:38:56;;;;;;;19.40;14.90;;;4.10;99.90;;;;;;5080888;28;20554;-30
2022/12/05 05:41:28;;;;;;;23.33;16.17;;;4.10;99.90;;;;;;5078213;28;20763;-30
2022/12/05 05:43:53;;;;;;;19.93;15.30;;;4.20;99.90;;;;;;5087723;28;20484;-30
2022/12/05 05:46:22;;;;;;;19.13;14.70;;;4.10;99.90;;;;;;5089850;28;20446;-30
2022/12/05 05:48:48;;;;;;;23.63;15.00;;;4.00;99.90;;;;;;5082518;28;20204;-30
2022/12/05 05:51:15;;;;;;;23.20;15.40;;;4.10;99.90;;;;;;5089352;28;20491;-30
2022/12/05 05:53:41;;;;;;;23.20;16.40;;;4.10;99.90;;;;;;5088997;28;20789;-30
2022/12/05 05:56:10;;;;;;;24.93;16.57;;;4.30;99.90;;;;;;5089014;28;20450;-30
2022/12/05 05:58:36;;;;;;;25.27;16.30;;;4.00;99.90;;;;;;5084251;28;20598;-30
2022/12/05 06:01:06;;;;;;;22.90;16.30;;;4.20;99.90;;;;;;5083654;28;20560;-30
2022/12/05 06:03:32;;;;;;;23.70;15.17;;;4.10;99.90;;;;;;5070645;28;20422;-30
2022/12/05 06:06:04;;;;;;;22.53;15.10;;;4.10;99.90;;;;;;5089059;28;20629;-30
2022/12/05 06:08:34;;;;;;;18.70;14.67;;;4.10;99.90;;;;;;5088654;28;20411;-30
2022/12/05 06:11:04;;;;;;;22.70;15.70;;;4.10;99.90;;;;;;5089033;28;20781;-30
2022/12/05 06:13:30;;;;;;;20.50;16.23;;;4.10;99.90;;;;;;5070526;28;20845;-30
2022/12/05 06:15:55;;;;;;;18.87;14.53;;;4.00;99.90;;;;;;5068335;28;20446;-30
2022/12/05 06:18:21;;;;;;;20.60;15.30;;;4.10;99.90;;;;;;5068365;28;20288;-30
2022/12/05 06:20:56;;;;;;;18.50;13.97;;;3.90;99.90;;;;;;5068654;28;20177;-30
2022/12/05 06:23:23;;;;;;;21.20;15.90;;;3.90;99.90;;;;;;5068300;28;20639;-30
2022/12/05 06:25:53;;;;;;;19.80;15.00;;;4.00;99.90;;;;;;5067328;28;20434;-30
2022/12/05 06:28:20;;;;;;;21.33;14.73;;;4.00;99.90;;;;;;5068464;28;20526;-30
2022/12/05 06:30:46;;;;;;;21.83;15.33;;;3.90;99.90;;;;;;5068606;28;20610;-30
2022/12/05 06:33:12;;;;;;;19.97;15.43;;;3.90;99.90;;;;;;5068249;28;20420;-30
2022/12/05 06:35:38;;;;;;;18.73;15.50;;;4.10;99.90;;;;;;5067368;28;20412;-30
2022/12/05 06:38:05;;;;;;;23.73;15.53;;;4.10;99.90;;;;;;5067998;28;20970;-30
2022/12/05 06:40:31;;;;;;;18.90;15.13;;;3.80;99.90;;;;;;5087857;28;20224;-30
2022/12/05 06:42:56;;;;;;;23.17;15.37;;;4.10;99.90;;;;;;5087678;28;20757;-30
2022/12/05 06:45:22;;;;;;;21.63;15.13;;;4.00;99.90;;;;;;5088459;28;20245;-30
2022/12/05 06:47:49;;;;;;;20.70;14.30;;;3.90;99.90;;;;;;5087283;28;20192;-30
2022/12/05 06:50:15;;;;;;;19.90;15.17;;;3.90;99.90;;;;;;5086296;28;20254;-30
2022/12/05 06:52:40;;;;;;;19.67;14.93;;;3.90;99.90;;;;;;5080294;28;20426;-30
2022/12/05 06:55:06;;;;;;;19.50;15.10;;;3.90;99.90;;;;;;5088124;28;20263;-30
2022/12/05 06:57:32;;;;;;;23.27;15.87;;;3.90;99.90;;;;;;5088081;28;20184;-30
2022/12/05 07:02:42;;;;;;;21.30;15.10;;;4.00;99.90;;;;;;5088249;28;20523;-30
2022/12/05 07:05:09;;;;;;;22.60;15.50;;;4.00;99.90;;;;;;5088198;28;20419;-30
2022/12/05 07:07:36;;;;;;;23.83;15.50;;;3.90;99.90;;;;;;5088281;28;20204;-30
2022/12/05 07:10:02;;;;;;;20.40;15.00;;;3.90;99.90;;;;;;5087296;28;20476;-30
2022/12/05 07:12:28;;;;;;;22.80;14.70;;;4.00;99.90;;;;;;5078288;28;20526;-30
2022/12/05 07:14:54;;;;;;;17.37;13.50;;;4.00;99.90;;;;;;5079223;28;20517;-30
2022/12/05 07:17:20;;;;;;;16.97;13.90;;;4.00;99.90;;;;;;5086932;28;20231;-30
2022/12/05 07:19:48;;;;;;;16.97;13.30;;;4.00;99.90;;;;;;5074091;28;20204;-30
2022/12/05 07:22:14;;;;;;;18.20;14.30;;;3.90;99.90;;;;;;5076299;28;20847;-29
2022/12/05 07:24:39;;;;;;;19.60;12.90;;;4.00;99.90;;;;;;5075971;28;20907;-30
2022/12/05 07:27:06;;;;;;;17.03;12.80;;;4.00;99.90;;;;;;5076551;28;20642;-29
2022/12/05 07:29:31;;;;;;;16.50;13.10;;;3.90;99.90;;;;;;5081006;28;20609;-30
2022/12/05 07:31:57;;;;;;;18.93;14.20;;;3.90;99.90;;;;;;5082562;28;20441;-30
2022/12/05 07:34:23;;;;;;;17.73;13.50;;;3.80;99.90;;;;;;5080013;28;20188;-30
2022/12/05 07:36:48;;;;;;;19.43;14.10;;;3.90;99.90;;;;;;5086725;28;20189;-30
2022/12/05 07:39:15;;;;;;;18.30;13.67;;;3.80;99.90;;;;;;5073384;28;20239;-30
2022/12/05 07:41:41;;;;;;;15.63;13.47;;;3.90;99.90;;;;;;5075830;28;20185;-29
2022/12/05 07:44:10;;;;;;;16.13;12.50;;;4.00;99.90;;;;;;5075263;28;20422;-30
2022/12/05 07:46:36;;;;;;;15.27;13.23;;;3.90;99.90;;;;;;5078493;28;20446;-30
2022/12/05 07:49:02;;;;;;;17.03;12.80;;;4.00;99.90;;;;;;5067169;28;20459;-30
2022/12/05 07:51:28;;;;;;;15.80;11.27;;;4.00;99.90;;;;;;5067530;28;20881;-30
2022/12/05 07:53:53;;;;;;;16.40;11.87;;;3.90;99.90;;;;;;5067197;28;20207;-30
2022/12/05 07:56:19;;;;;;;14.70;11.27;;;3.70;99.90;;;;;;5067678;28;20578;-30
2022/12/05 07:58:47;;;;;;;17.13;12.60;;;3.80;99.90;;;;;;5067015;28;20213;-30
2022/12/05 08:01:16;;;;;;;14.60;12.00;;;4.00;99.90;;;;;;5068414;28;20188;-30
2022/12/05 08:03:43;;;;;;;14.80;12.23;;;3.90;99.90;;;;;;5085687;28;20452;-30
2022/12/05 08:06:16;;;;;;;15.47;11.60;;;3.70;99.90;;;;;;5091368;28;20853;-30
2022/12/05 08:08:43;;;;;;;13.60;11.10;;;3.80;99.90;;;;;;5089740;28;20862;-30
2022/12/05 08:11:14;;;;;;;12.23;10.93;;;3.80;99.90;;;;;;5091692;28;20418;-30
2022/12/05 08:13:41;;;;;;;13.83;10.70;;;3.80;99.90;;;;;;5090901;28;20896;-29
2022/12/05 08:16:10;;;;;;;12.33;10.00;;;3.80;99.90;;;;;;5091525;28;20480;-30
2022/12/05 08:18:36;;;;;;;11.60;10.17;;;3.70;99.90;;;;;;5090577;28;20467;-29
2022/12/05 08:21:03;;;;;;;11.67;10.13;;;3.80;99.90;;;;;;5091251;28;20813;-30
2022/12/05 08:23:30;;;;;;;12.97;9.97;;;3.70;99.90;;;;;;5091013;28;20461;-30
2022/12/05 08:25:59;;;;;;;11.60;9.80;;;3.60;99.90;;;;;;5091401;28;20414;-29
2022/12/05 08:28:25;;;;;;;12.90;11.17;;;3.50;99.90;;;;;;5090803;28;20422;-30
2022/12/05 08:30:51;;;;;;;12.07;9.87;;;3.60;99.90;;;;;;5089646;28;20418;-30
2022/12/05 08:33:16;;;;;;;11.77;9.87;;;3.50;99.90;;;;;;5090633;28;20189;-29
2022/12/05 08:35:42;;;;;;;13.63;11.20;;;3.60;99.90;;;;;;5090224;28;20242;-30
2022/12/05 08:38:08;;;;;;;12.07;10.80;;;3.80;99.90;;;;;;5090862;28;20180;-29
2022/12/05 08:40:33;;;;;;;12.73;9.70;;;3.50;99.90;;;;;;5069010;28;20216;-30
2022/12/05 08:42:59;;;;;;;11.13;9.40;;;3.60;99.90;;;;;;5087158;28;20252;-29
2022/12/05 08:45:24;;;;;;;10.67;9.33;;;3.60;99.90;;;;;;5089810;28;20212;-30
2022/12/05 08:47:50;;;;;;;12.40;10.27;;;3.50;99.90;;;;;;5089201;28;20180;-30
2022/12/05 08:50:16;;;;;;;11.53;10.33;;;3.70;99.90;;;;;;5089807;28;20186;-29
2022/12/05 08:52:41;;;;;;;10.47;9.37;;;3.60;99.90;;;;;;5090318;28;20523;-30
2022/12/05 08:55:07;;;;;;;11.17;9.60;;;3.50;99.90;;;;;;5090332;28;20184;-30
2022/12/05 08:57:33;;;;;;;12.03;9.80;;;3.70;99.90;;;;;;5090494;28;20610;-30
2022/12/05 08:59:59;;;;;;;10.53;9.40;;;3.60;99.90;;;;;;5090030;28;20714;-30
2022/12/05 09:02:24;;;;;;;12.77;9.87;;;3.70;99.90;;;;;;5090033;28;20188;-29
2022/12/05 09:04:51;;;;;;;11.33;10.13;;;3.50;99.90;;;;;;5090269;28;20185;-30
2022/12/05 09:07:16;;;;;;;11.60;9.87;;;3.60;99.90;;;;;;5090137;28;20184;-30
2022/12/05 09:09:42;;;;;;;10.47;9.37;;;3.70;99.90;;;;;;5090352;28;20423;-30
2022/12/05 09:12:08;;;;;;;12.07;10.20;;;3.60;99.90;;;;;;5083128;28;20646;-30
2022/12/05 09:14:33;;;;;;;11.87;10.57;;;3.50;99.90;;;;;;5084791;28;20224;-30
2022/12/05 09:17:00;;;;;;;13.50;10.90;;;3.60;99.90;;;;;;5069693;28;20201;-30
2022/12/05 09:19:27;;;;;;;12.90;10.87;;;3.50;99.90;;;;;;5068370;28;20216;-29
2022/12/05 09:21:53;;;;;;;11.33;10.00;;;3.50;99.90;;;;;;5070101;28;20883;-30
2022/12/05 09:24:19;;;;;;;11.73;10.53;;;3.60;99.90;;;;;;5070060;28;20511;-30
2022/12/05 09:26:45;;;;;;;10.97;9.87;;;3.50;99.90;;;;;;5069981;28;20506;-30
2022/12/05 09:29:12;;;;;;;12.53;10.40;;;3.70;99.90;;;;;;5069818;28;20238;-29
2022/12/05 09:31:38;;;;;;;12.67;10.30;;;3.40;99.90;;;;;;5069724;28;20506;-29
2022/12/05 09:34:04;;;;;;;12.73;11.20;;;3.50;99.90;;;;;;5068338;28;20419;-30
2022/12/05 09:36:30;;;;;;;11.60;10.03;;;3.50;99.90;;;;;;5068407;28;20473;-30
2022/12/05 09:39:01;;;;;;;13.23;9.70;;;3.50;99.90;;;;;;5091184;28;20235;-30
2022/12/05 09:42:04;;;;;;;11.83;10.10;;;3.70;99.90;;;;;;5090083;28;20708;-30
2022/12/05 09:44:45;;;;;;;13.17;11.40;;;3.70;99.90;;;;;;5089593;28;20450;-30
2022/12/05 09:47:35;;;;;;;12.70;10.90;;;3.50;99.90;;;;;;5090002;28;20410;-30
2022/12/05 09:50:18;;;;;;;15.27;11.47;;;3.70;99.90;;;;;;5089896;28;20489;-30
2022/12/05 09:52:58;;;;;;;13.20;11.07;;;3.70;99.90;;;;;;5089735;28;20704;-29
2022/12/05 09:55:26;;;;;;;12.60;10.43;;;3.70;99.90;;;;;;5089669;28;20449;-30
2022/12/05 09:57:57;;;;;;;11.67;10.23;;;3.60;99.90;;;;;;5089342;28;20402;-30
2022/12/05 10:00:25;;;;;;;13.30;10.90;;;3.70;99.90;;;;;;5088892;28;20458;-29
2022/12/05 10:02:53;;;;;;;10.60;9.50;;;3.70;99.90;;;;;;5087774;28;20418;-29
2022/12/05 10:05:33;;;;;;;12.27;9.97;;;3.80;99.90;;;;;;5089444;28;20513;-29
2022/12/05 10:08:11;;;;;;;13.33;11.00;;;3.60;99.90;;;;;;5089513;28;20423;-30
2022/12/05 10:10:56;;;;;;;12.57;10.47;;;3.60;99.90;;;;;;5088846;28;20469;-29
2022/12/05 10:13:29;;;;;;;12.27;10.97;;;3.80;99.90;;;;;;5071746;28;20423;-29
2022/12/05 10:16:01;;;;;;;13.43;11.57;;;3.60;99.90;;;;;;5068764;28;20438;-30
2022/12/05 10:18:31;;;;;;;12.70;10.83;;;3.40;99.90;;;;;;5068372;28;20415;-30
2022/12/05 10:21:08;;;;;;;13.67;10.77;;;3.80;99.90;;;;;;5068709;28;20415;-30
2022/12/05 10:24:00;;;;;;;14.53;11.63;;;3.70;99.90;;;;;;5068389;28;20916;-30
2022/12/05 10:26:36;;;;;;;12.90;10.83;;;3.60;99.90;;;;;;5068542;28;20434;-29
2022/12/05 10:29:05;;;;;;;15.13;12.50;;;3.80;99.90;;;;;;5068427;28;20426;-30
2022/12/05 10:31:35;;;;;;;12.93;11.53;;;3.70;99.90;;;;;;5067216;28;20418;-29
2022/12/05 10:34:26;;;;;;;15.50;12.70;;;3.70;99.90;;;;;;5067602;28;20422;-29
2022/12/05 10:37:15;;;;;;;13.50;11.10;;;3.80;99.90;;;;;;5065635;28;20431;-30
2022/12/05 10:39:41;;;;;;;14.20;11.77;;;3.80;99.90;;;;;;5081246;28;20478;-30
2022/12/05 10:42:13;;;;;;;13.50;11.70;;;3.80;99.90;;;;;;5088572;28;20515;-29
2022/12/05 10:44:39;;;;;;;14.90;12.30;;;3.60;99.90;;;;;;5088279;28;20184;-30
2022/12/05 10:47:05;;;;;;;17.30;12.30;;;3.60;99.90;;;;;;5088490;28;20905;-30
2022/12/05 10:49:32;;;;;;;13.47;11.20;;;3.90;99.90;;;;;;5088263;28;20423;-30
2022/12/05 10:51:59;;;;;;;15.90;11.60;;;3.90;99.90;;;;;;5088490;28;20448;-29
2022/12/05 10:54:29;;;;;;;13.00;11.60;;;3.90;99.90;;;;;;5088480;28;20491;-30
2022/12/05 10:56:55;;;;;;;14.53;11.80;;;3.80;99.90;;;;;;5088910;28;20792;-30
2022/12/05 10:59:25;;;;;;;14.53;12.10;;;3.90;99.90;;;;;;5088241;28;20782;-30
2022/12/05 11:01:56;;;;;;;16.47;11.70;;;3.80;99.90;;;;;;5088419;28;20464;-30
2022/12/05 11:04:30;;;;;;;13.57;11.60;;;3.90;99.90;;;;;;5087938;28;20773;-30
2022/12/05 11:07:03;;;;;;;14.40;11.00;;;3.90;99.90;;;;;;5088281;28;20406;-30
2022/12/05 11:09:35;;;;;;;14.87;12.67;;;3.60;99.90;;;;;;5087415;28;20423;-30
2022/12/05 11:12:08;;;;;;;16.63;13.00;;;3.80;99.90;;;;;;5082742;28;20788;-30
2022/12/05 11:14:35;;;;;;;12.93;11.07;;;3.90;99.90;;;;;;5067809;28;20415;-30
2022/12/05 11:17:02;;;;;;;16.43;12.00;;;3.80;99.90;;;;;;5067873;28;20489;-30
2022/12/05 11:19:35;;;;;;;15.00;12.60;;;3.70;99.90;;;;;;5067286;28;21022;-30
2022/12/05 11:22:01;;;;;;;15.17;12.43;;;3.80;99.90;;;;;;5067708;28;20431;-29
2022/12/05 11:24:38;;;;;;;14.20;12.10;;;3.80;99.90;;;;;;5067513;28;20835;-30
2022/12/05 11:27:16;;;;;;;14.87;12.70;;;3.60;99.90;;;;;;5067912;28;20484;-30
2022/12/05 11:29:44;;;;;;;14.30;12.07;;;3.70;99.90;;;;;;5067127;28;20921;-30
2022/12/05 11:32:21;;;;;;;14.03;12.17;;;3.70;99.90;;;;;;5068044;28;20423;-30
2022/12/05 11:35:11;;;;;;;14.00;11.37;;;3.80;99.90;;;;;;5066557;28;20498;-30
2022/12/05 11:37:57;;;;;;;13.67;11.37;;;3.80;99.90;;;;;;5073914;28;20825;-29
2022/12/05 11:40:41;;;;;;;15.73;12.70;;;3.90;99.90;;;;;;5073759;28;20960;-29
2022/12/05 11:43:07;;;;;;;14.17;12.67;;;3.70;99.90;;;;;;5074210;28;20736;-30
2022/12/05 11:45:52;;;;;;;17.10;14.60;;;3.50;99.90;;;;;;5074309;28;20414;-29
2022/12/05 11:48:20;;;;;;;15.67;14.07;;;3.80;99.90;;;;;;5072960;28;20176;-29
2022/12/05 11:50:51;;;;;;;14.67;13.10;;;3.50;99.90;;;;;;5073795;28;21031;-30
2022/12/05 11:53:29;;;;;;;14.47;12.20;;;3.70;99.90;;;;;;5074344;28;20429;-30
2022/12/05 11:56:05;;;;;;;18.00;13.20;;;3.60;99.90;;;;;;5074028;28;20419;-30
2022/12/05 11:58:33;;;;;;;14.67;13.00;;;3.80;99.90;;;;;;5073618;28;20603;-29
2022/12/05 12:01:20;;;;;;;14.60;12.70;;;3.70;99.90;;;;;;5074431;28;20411;-30
2022/12/05 12:03:58;;;;;;;15.60;13.27;;;3.80;99.90;;;;;;5072442;28;20463;-29
2022/12/05 12:06:32;;;;;;;14.30;12.80;;;3.70;99.90;;;;;;5074172;28;20509;-29
2022/12/05 12:09:20;;;;;;;17.07;13.37;;;3.80;99.90;;;;;;5073738;28;20414;-29
2022/12/05 12:11:53;;;;;;;14.83;12.37;;;3.50;99.90;;;;;;5073931;28;20451;-30
2022/12/05 12:14:33;;;;;;;15.27;12.37;;;3.80;99.90;;;;;;5073983;28;20419;-29
2022/12/05 12:17:06;;;;;;;17.13;13.30;;;3.60;99.90;;;;;;5073700;28;20470;-29
2022/12/05 12:19:54;;;;;;;17.23;12.63;;;3.50;99.90;;;;;;5089032;28;20829;-29
2022/12/05 12:22:28;;;;;;;15.50;12.20;;;3.50;99.90;;;;;;5073655;28;20840;-29
2022/12/05 12:25:14;;;;;;;16.13;14.40;;;3.50;99.90;;;;;;5074409;28;21047;-30
2022/12/05 12:28:00;;;;;;;17.03;13.43;;;3.60;99.90;;;;;;5073848;28;21208;-30
2022/12/05 12:31:00;;;;;;;16.73;13.73;;;3.80;99.90;;;;;;5073879;28;20812;-30
2022/12/05 12:33:34;;;;;;;15.47;12.17;;;3.50;99.90;;;;;;5072597;28;20423;-29
2022/12/05 12:36:24;;;;;;;13.77;12.20;;;3.70;99.90;;;;;;5074265;28;20439;-29
2022/12/05 12:39:16;;;;;;;15.00;12.30;;;3.70;99.90;;;;;;5079372;28;20469;-29
2022/12/05 12:41:51;;;;;;;15.87;12.70;;;3.70;99.90;;;;;;5094712;28;20414;-30
2022/12/05 12:44:29;;;;;;;15.20;13.20;;;3.70;99.90;;;;;;5094044;28;20770;-29
2022/12/05 12:47:06;;;;;;;14.73;12.70;;;3.70;99.90;;;;;;5094040;28;20442;-30
2022/12/05 12:49:51;;;;;;;16.73;13.37;;;3.40;99.90;;;;;;5090474;28;20454;-30
2022/12/05 12:52:23;;;;;;;14.77;12.70;;;3.60;99.90;;;;;;5091316;28;20422;-29
2022/12/05 12:55:04;;;;;;;19.10;15.13;;;3.60;99.90;;;;;;5090798;28;20426;-30
2022/12/05 12:57:37;;;;;;;18.67;14.23;;;3.50;99.90;;;;;;5091069;28;20437;-30
2022/12/05 13:00:22;;;;;;;20.53;14.80;;;3.60;99.90;;;;;;5090551;28;20936;-30
2022/12/05 13:02:59;;;;;;;15.70;12.83;;;3.50;99.90;;;;;;5090720;28;20414;-29
2022/12/05 13:05:46;;;;;;;14.47;12.93;;;3.50;99.90;;;;;;5090819;28;20410;-30